Halibut Cove, Alaska
Current Conditions -  °F | °C
As of 10:53 PM on Tuesday 21 Oct 2014 (Local Time) from PAHO Reporting Station
Clear Clear  
Wind Chill: 30°   Ceiling: Unl
Heat Index: 34°   Visibility: 10mi
Dew Point: 28°   Wind: 5mph
Humidity: 79%   Direction: 10°N
Pressure: 29.22"   Gusts: NA
Location:  59.7153°N, 150.773°W
Report Text: PAHO 220653Z AUTO 01004KT 10SM CLR 01/M02 A2922 RMK AO2 SLP896 T00111022 TSNO
Loading
Personal Weather Stations






























Interactive Weather Map
Tropical Storm Tracking
New forecast layout! Learn more

10-Day Weather Forecast

Advertisements
Track Severe Weather on mobile